Time;durP1;ratioP1;P1;durP2;ratioP2;P2;SDS_P1;SDS_P2;PMS_P1;PMS_P2;Temp;Humidity;BMP_temperature;BMP_pressure;BME280_temperature;BME280_humidity;BME280_pressure;Samples;Min_cycle;Max_cycle;Signal;HPM_P1;HPM_P2
2023/12/21 00:02:01;;;;;;;6.45;1.40;;;11.30;99.90;;;;;;5131624;27;20023;-78
2023/12/21 00:04:27;;;;;;;1.92;0.75;;;11.30;99.90;;;;;;5131547;27;20027;-79
2023/12/21 00:06:52;;;;;;;2.47;1.00;;;11.30;99.90;;;;;;5131382;27;20059;-79
2023/12/21 00:09:19;;;;;;;3.67;1.02;;;11.30;99.90;;;;;;5131883;27;20032;-79
2023/12/21 00:11:44;;;;;;;4.30;1.20;;;11.30;99.90;;;;;;5131297;27;20062;-79
2023/12/21 00:14:10;;;;;;;3.35;1.10;;;11.30;99.90;;;;;;5132358;27;20073;-79
2023/12/21 00:16:36;;;;;;;3.92;1.38;;;11.30;99.90;;;;;;5130905;27;20035;-80
2023/12/21 00:19:02;;;;;;;2.85;0.90;;;11.30;99.90;;;;;;5131554;27;20115;-79
2023/12/21 00:21:28;;;;;;;4.03;1.38;;;11.40;99.90;;;;;;5131408;27;20035;-78
2023/12/21 00:23:53;;;;;;;4.75;1.05;;;11.30;99.90;;;;;;5112651;27;20023;-79
2023/12/21 00:26:19;;;;;;;4.95;1.60;;;11.30;99.90;;;;;;5131495;27;20038;-79
2023/12/21 00:28:45;;;;;;;7.32;1.40;;;11.40;99.90;;;;;;5130529;27;20034;-79
2023/12/21 00:31:11;;;;;;;3.85;1.20;;;11.30;99.90;;;;;;5131433;27;20019;-79
2023/12/21 00:33:37;;;;;;;5.68;1.70;;;11.40;99.90;;;;;;5131577;27;20042;-78
2023/12/21 00:36:03;;;;;;;5.43;1.42;;;11.30;99.90;;;;;;5131634;27;20031;-80
2023/12/21 00:38:29;;;;;;;7.80;1.52;;;11.30;99.90;;;;;;5131699;27;20042;-79
2023/12/21 00:40:56;;;;;;;7.70;1.55;;;11.30;99.90;;;;;;5112714;27;20749;-79
2023/12/21 00:43:22;;;;;;;6.38;1.15;;;11.30;99.90;;;;;;5132199;27;20019;-80
2023/12/21 00:45:47;;;;;;;4.70;1.20;;;11.40;99.90;;;;;;5131236;27;20028;-80
2023/12/21 00:48:14;;;;;;;5.47;1.33;;;11.30;99.90;;;;;;5132013;28;20033;-80
2023/12/21 00:50:40;;;;;;;4.15;1.70;;;11.30;99.90;;;;;;5131583;28;20024;-80
2023/12/21 00:53:06;;;;;;;5.68;1.70;;;11.30;99.90;;;;;;5131738;28;20027;-80
2023/12/21 00:55:32;;;;;;;4.85;1.73;;;11.30;99.90;;;;;;5131918;28;20038;-80
2023/12/21 00:57:58;;;;;;;10.95;1.63;;;11.40;99.90;;;;;;5131212;28;20199;-80
2023/12/21 01:00:24;;;;;;;6.75;1.48;;;11.30;99.90;;;;;;5113230;28;20051;-79
2023/12/21 01:02:50;;;;;;;8.18;1.85;;;11.40;99.90;;;;;;5130634;28;20030;-80
2023/12/21 01:05:16;;;;;;;7.15;1.67;;;11.40;99.90;;;;;;5131453;28;20460;-79
2023/12/21 01:07:42;;;;;;;8.90;1.83;;;11.30;99.90;;;;;;5112179;28;20030;-80
2023/12/21 01:10:08;;;;;;;6.22;1.83;;;11.40;99.90;;;;;;5112696;28;20028;-79
2023/12/21 01:12:34;;;;;;;6.40;2.03;;;11.40;99.90;;;;;;5113002;28;20076;-81
2023/12/21 01:15:01;;;;;;;6.43;1.65;;;11.40;99.90;;;;;;5130457;28;20024;-80
2023/12/21 01:17:27;;;;;;;7.75;1.95;;;11.50;99.90;;;;;;5131100;28;20023;-80
2023/12/21 01:19:52;;;;;;;8.10;2.40;;;11.40;99.90;;;;;;5130850;28;20042;-80
2023/12/21 01:22:19;;;;;;;13.35;2.45;;;11.40;99.90;;;;;;5112721;28;20106;-80
2023/12/21 01:24:45;;;;;;;12.55;2.55;;;11.40;99.90;;;;;;5130959;28;20155;-80
2023/12/21 01:27:11;;;;;;;14.63;2.30;;;11.50;99.90;;;;;;5130949;28;20026;-80
2023/12/21 01:29:37;;;;;;;10.90;2.03;;;11.40;99.90;;;;;;5131113;28;20023;-79
2023/12/21 01:32:03;;;;;;;8.52;2.25;;;11.50;99.90;;;;;;5130854;28;20029;-80
2023/12/21 01:34:28;;;;;;;9.00;1.95;;;11.50;99.90;;;;;;5131227;28;20034;-80
2023/12/21 01:36:54;;;;;;;7.63;2.03;;;11.50;99.90;;;;;;5112026;28;20023;-79
2023/12/21 01:39:20;;;;;;;10.20;2.15;;;11.50;99.90;;;;;;5131057;28;20080;-81
2023/12/21 01:41:45;;;;;;;11.98;2.60;;;11.50;99.90;;;;;;5112059;28;20122;-81
2023/12/21 01:44:11;;;;;;;17.00;3.22;;;11.50;99.90;;;;;;5131884;28;20404;-79
2023/12/21 01:46:37;;;;;;;11.30;2.30;;;11.60;99.90;;;;;;5130818;28;20080;-80
2023/12/21 01:49:04;;;;;;;10.82;2.70;;;11.50;99.90;;;;;;5112051;28;20096;-79
2023/12/21 01:51:30;;;;;;;16.77;3.28;;;11.60;99.90;;;;;;5131096;28;20080;-80
2023/12/21 01:53:58;;;;;;;12.48;2.78;;;11.60;99.90;;;;;;5130447;28;20027;-81
2023/12/21 01:56:24;;;;;;;10.38;2.22;;;11.60;99.90;;;;;;5130870;28;20031;-79
2023/12/21 01:58:50;;;;;;;14.90;3.15;;;11.50;99.90;;;;;;5131647;27;20023;-80
2023/12/21 02:01:19;;;;;;;11.25;2.40;;;11.40;99.90;;;;;;5139208;27;20392;-79
2023/12/21 02:03:45;;;;;;;15.93;3.28;;;11.40;99.90;;;;;;5139087;27;20440;-79
2023/12/21 02:06:11;;;;;;;16.30;2.60;;;11.40;99.90;;;;;;5121882;27;20027;-78
2023/12/21 02:08:37;;;;;;;14.10;2.58;;;11.50;99.90;;;;;;5142122;27;20137;-78
2023/12/21 02:11:10;;;;;;;9.10;2.33;;;11.40;99.90;;;;;;5139708;27;20041;-78
2023/12/21 02:13:36;;;;;;;;;;;11.40;99.90;;;;;;5136701;27;20472;-79
2023/12/21 02:16:10;;;;;;;13.70;2.60;;;11.40;99.90;;;;;;5134789;27;19907;-79
2023/12/21 02:18:36;;;;;;;13.73;2.33;;;11.40;99.90;;;;;;5135370;27;20417;-80
2023/12/21 02:21:03;;;;;;;13.23;2.60;;;11.40;99.90;;;;;;5134907;27;20061;-79
2023/12/21 02:23:32;;;;;;;18.17;3.00;;;11.40;99.90;;;;;;5135575;27;20059;-78
2023/12/21 02:25:58;;;;;;;9.95;2.30;;;11.40;99.90;;;;;;5134687;27;20027;-79
2023/12/21 02:28:24;;;;;;;9.38;2.28;;;11.40;99.90;;;;;;5135389;27;20065;-80
2023/12/21 02:30:50;;;;;;;12.88;2.75;;;11.40;99.90;;;;;;5135142;27;20066;-81
2023/12/21 02:33:15;;;;;;;13.57;2.70;;;11.40;99.90;;;;;;5135379;27;20019;-77
2023/12/21 02:35:42;;;;;;;12.60;2.42;;;11.40;99.90;;;;;;5136007;27;20471;-79
2023/12/21 02:38:08;;;;;;;13.52;3.13;;;11.40;99.90;;;;;;5136966;27;20024;-81
2023/12/21 02:40:34;;;;;;;16.98;2.80;;;11.40;99.90;;;;;;5101544;27;20077;-82
2023/12/21 02:42:59;;;;;;;19.38;3.97;;;11.40;99.90;;;;;;5133578;27;20023;-80
2023/12/21 02:45:25;;;;;;;17.88;2.90;;;11.40;99.90;;;;;;5133975;27;20031;-81
2023/12/21 02:47:51;;;;;;;14.73;2.90;;;11.40;99.90;;;;;;5133426;27;20104;-80
2023/12/21 02:50:16;;;;;;;16.45;3.58;;;11.30;99.90;;;;;;5115687;27;20027;-80
2023/12/21 02:52:42;;;;;;;15.70;3.25;;;11.40;99.90;;;;;;5133809;27;20023;-80
2023/12/21 02:55:08;;;;;;;20.15;3.30;;;11.40;99.90;;;;;;5133198;27;20049;-80
2023/12/21 02:57:34;;;;;;;15.98;3.58;;;11.40;99.90;;;;;;5133322;27;20034;-80
2023/12/21 03:00:00;;;;;;;19.13;3.13;;;11.40;99.90;;;;;;5133022;27;20043;-80
2023/12/21 03:02:25;;;;;;;14.55;2.92;;;11.40;99.90;;;;;;5114850;27;20468;-81
2023/12/21 03:04:51;;;;;;;21.95;3.30;;;11.40;99.90;;;;;;5132785;27;20052;-80
2023/12/21 03:07:17;;;;;;;15.57;3.30;;;11.40;99.90;;;;;;5133205;27;20028;-80
2023/12/21 03:09:42;;;;;;;21.23;3.15;;;11.40;99.90;;;;;;5132515;27;20030;-79
2023/12/21 03:12:08;;;;;;;12.35;2.53;;;11.40;99.90;;;;;;5132506;27;20059;-80
2023/12/21 03:14:34;;;;;;;18.02;3.22;;;11.40;99.90;;;;;;5133073;27;20027;-79
2023/12/21 03:17:00;;;;;;;12.32;2.60;;;11.40;99.90;;;;;;5132213;27;20027;-79
2023/12/21 03:19:25;;;;;;;12.32;2.63;;;11.40;99.90;;;;;;5114227;27;20072;-80
2023/12/21 03:21:51;;;;;;;17.70;3.00;;;11.40;99.90;;;;;;5132340;27;20071;-80
2023/12/21 03:24:17;;;;;;;10.65;2.55;;;11.40;99.90;;;;;;5132919;27;20340;-80
2023/12/21 03:26:45;;;;;;;12.70;2.55;;;11.40;99.90;;;;;;5133167;27;20067;-80
2023/12/21 03:29:11;;;;;;;11.57;2.47;;;11.40;99.90;;;;;;5132370;27;20023;-81
2023/12/21 03:31:37;;;;;;;15.32;2.75;;;11.40;99.90;;;;;;5132823;27;20236;-80
2023/12/21 03:34:02;;;;;;;17.77;3.15;;;11.40;99.90;;;;;;5132043;27;20027;-80
2023/12/21 03:36:28;;;;;;;16.90;2.90;;;11.40;99.90;;;;;;5132579;27;20041;-80
2023/12/21 03:38:54;;;;;;;16.05;2.80;;;11.50;99.90;;;;;;5132008;27;20364;-80
2023/12/21 03:41:20;;;;;;;20.35;3.78;;;11.50;99.90;;;;;;5132529;27;20069;-80
2023/12/21 03:43:45;;;;;;;15.98;3.03;;;11.50;99.90;;;;;;5132552;27;20047;-81
2023/12/21 03:46:11;;;;;;;22.60;4.18;;;11.50;99.90;;;;;;5113609;27;20039;-79
2023/12/21 03:48:37;;;;;;;16.13;3.28;;;11.50;99.90;;;;;;5132172;27;20388;-80
2023/12/21 03:51:03;;;;;;;14.95;4.13;;;11.50;99.90;;;;;;5132043;27;20027;-81
2023/12/21 03:53:28;;;;;;;15.80;3.38;;;11.50;99.90;;;;;;5113615;27;20386;-81
2023/12/21 03:55:54;;;;;;;17.70;3.22;;;11.50;99.90;;;;;;5131362;27;20030;-81
2023/12/21 03:58:20;;;;;;;17.40;3.85;;;11.40;99.90;;;;;;5132102;27;20475;-80
2023/12/21 04:00:45;;;;;;;20.13;3.72;;;11.50;99.90;;;;;;5113534;27;20135;-87
2023/12/21 04:03:11;;;;;;;15.32;3.20;;;11.50;99.90;;;;;;5113328;27;20066;-86
2023/12/21 04:05:38;;;;;;;19.30;3.72;;;11.50;99.90;;;;;;5113755;27;20054;-84
2023/12/21 04:08:05;;;;;;;15.73;4.32;;;11.60;99.90;;;;;;5131825;27;20075;-84
2023/12/21 04:10:31;;;;;;;19.02;3.45;;;11.60;99.90;;;;;;5132371;27;20027;-85
2023/12/21 04:12:56;;;;;;;20.83;3.08;;;11.50;99.90;;;;;;5131287;27;20038;-85
2023/12/21 04:15:22;;;;;;;18.90;3.38;;;11.50;99.90;;;;;;5132402;27;20114;-85
2023/12/21 04:17:48;;;;;;;17.15;3.33;;;11.50;99.90;;;;;;5132402;27;20031;-85
2023/12/21 04:20:13;;;;;;;17.70;3.38;;;11.50;99.90;;;;;;5131481;27;20031;-85
2023/12/21 04:22:39;;;;;;;16.55;3.60;;;11.50;99.90;;;;;;5113039;27;20034;-84
2023/12/21 04:25:05;;;;;;;18.63;3.38;;;11.50;99.90;;;;;;5131299;27;20034;-85
2023/12/21 04:27:31;;;;;;;17.85;3.65;;;11.60;99.90;;;;;;5131803;27;20031;-84
2023/12/21 04:29:57;;;;;;;25.83;4.57;;;11.50;99.90;;;;;;5130823;27;20333;-84
2023/12/21 04:32:22;;;;;;;15.43;4.32;;;11.50;99.90;;;;;;5131793;27;20436;-86
2023/12/21 04:34:48;;;;;;;22.20;4.00;;;11.50;99.90;;;;;;5132180;27;20020;-84
2023/12/21 04:37:14;;;;;;;24.80;3.75;;;11.50;99.90;;;;;;5112441;27;20079;-85
2023/12/21 04:39:39;;;;;;;26.17;4.97;;;11.40;99.90;;;;;;5131642;27;20102;-80
2023/12/21 04:42:06;;;;;;;18.33;3.38;;;11.50;99.90;;;;;;5112178;27;20110;-79
2023/12/21 04:44:32;;;;;;;23.95;4.13;;;11.50;99.90;;;;;;5131476;27;20027;-80
2023/12/21 04:46:57;;;;;;;20.02;4.20;;;11.40;99.90;;;;;;5130859;28;20122;-80
2023/12/21 04:49:24;;;;;;;19.05;3.55;;;11.40;99.90;;;;;;5131988;28;20044;-82
2023/12/21 04:51:50;;;;;;;19.25;3.75;;;11.40;99.90;;;;;;5131904;28;20026;-80
2023/12/21 04:54:16;;;;;;;18.45;3.95;;;11.40;99.90;;;;;;5112379;28;20027;-80
2023/12/21 04:56:41;;;;;;;22.10;3.70;;;11.30;99.90;;;;;;5131492;28;20433;-81
2023/12/21 04:59:08;;;;;;;17.65;3.55;;;11.40;99.90;;;;;;5130934;28;20345;-81
2023/12/21 05:01:34;;;;;;;21.85;3.60;;;11.40;99.90;;;;;;5131855;27;20047;-80
2023/12/21 05:04:02;;;;;;;26.85;4.30;;;11.30;99.90;;;;;;5131161;28;20028;-80
2023/12/21 05:06:28;;;;;;;19.58;3.92;;;11.30;99.90;;;;;;5114120;28;20035;-81
2023/12/21 05:08:56;;;;;;;17.98;2.97;;;11.40;99.90;;;;;;5132753;28;20189;-81
2023/12/21 05:11:22;;;;;;;19.48;3.92;;;11.40;99.90;;;;;;5133450;28;20024;-80
2023/12/21 05:13:48;;;;;;;16.90;3.10;;;11.40;99.90;;;;;;5133020;28;20106;-80
2023/12/21 05:16:13;;;;;;;20.80;4.20;;;11.40;99.90;;;;;;5132258;28;20224;-80
2023/12/21 05:18:39;;;;;;;15.98;3.72;;;11.40;99.90;;;;;;5132022;28;20136;-80
2023/12/21 05:21:09;;;;;;;21.50;3.40;;;11.40;99.90;;;;;;5112257;28;20020;-79
2023/12/21 05:23:35;;;;;;;18.88;2.92;;;11.50;99.90;;;;;;5131425;28;20031;-80
2023/12/21 05:26:01;;;;;;;13.30;3.00;;;11.40;99.90;;;;;;5112286;28;20023;-80
2023/12/21 05:28:26;;;;;;;9.85;2.45;;;11.40;99.90;;;;;;5130740;28;20416;-84
2023/12/21 05:30:52;;;;;;;11.93;2.58;;;11.50;99.90;;;;;;5131692;28;20057;-79
2023/12/21 05:33:18;;;;;;;11.90;2.40;;;11.60;99.90;;;;;;5131573;27;20035;-81
2023/12/21 05:35:43;;;;;;;16.15;3.15;;;11.60;99.90;;;;;;5135425;27;20368;-80
2023/12/21 05:38:09;;;;;;;14.82;2.65;;;11.60;99.90;;;;;;5135052;27;20475;-81
2023/12/21 05:40:35;;;;;;;9.00;2.40;;;11.60;99.90;;;;;;5135549;27;20027;-80
2023/12/21 05:43:00;;;;;;;14.60;2.63;;;11.60;99.90;;;;;;5135285;27;20374;-80
2023/12/21 05:45:26;;;;;;;8.93;1.75;;;11.60;99.90;;;;;;5135805;27;20132;-79
2023/12/21 05:47:52;;;;;;;10.57;2.40;;;11.70;99.90;;;;;;5136362;27;20050;-80
2023/12/21 05:50:18;;;;;;;10.88;2.28;;;11.70;99.90;;;;;;5117381;27;20134;-80
2023/12/21 05:52:44;;;;;;;14.73;2.78;;;11.70;99.90;;;;;;5135788;27;20079;-80
2023/12/21 05:55:14;;;;;;;8.88;1.92;;;11.70;99.90;;;;;;5134824;27;20069;-81
2023/12/21 05:57:41;;;;;;;9.02;2.45;;;11.70;99.90;;;;;;5116317;27;20038;-80
2023/12/21 06:00:08;;;;;;;8.55;2.40;;;11.70;99.90;;;;;;5134206;27;20394;-79
2023/12/21 06:02:33;;;;;;;8.45;2.40;;;11.70;99.90;;;;;;5134768;27;20019;-79
2023/12/21 06:04:59;;;;;;;8.43;1.85;;;11.70;99.90;;;;;;5134296;27;20037;-79
2023/12/21 06:07:25;;;;;;;10.55;2.28;;;11.70;99.90;;;;;;5134654;27;20118;-79
2023/12/21 06:09:51;;;;;;;11.05;1.85;;;11.70;99.90;;;;;;5134276;27;20394;-81
2023/12/21 06:12:17;;;;;;;10.38;2.53;;;11.70;99.90;;;;;;5115117;27;20117;-79
2023/12/21 06:14:43;;;;;;;6.32;1.85;;;11.70;99.90;;;;;;5134242;27;20027;-80
2023/12/21 06:17:11;;;;;;;9.15;1.98;;;11.70;99.90;;;;;;5134077;27;20477;-79
2023/12/21 06:19:36;;;;;;;7.50;2.13;;;11.70;99.90;;;;;;5134594;27;20051;-80
2023/12/21 06:22:02;;;;;;;12.20;2.47;;;11.70;99.90;;;;;;5133987;27;20023;-80
2023/12/21 06:24:28;;;;;;;9.30;1.90;;;11.80;99.90;;;;;;5134762;27;20470;-80
2023/12/21 06:26:54;;;;;;;10.00;1.98;;;11.70;99.90;;;;;;5134684;27;20028;-80
2023/12/21 06:29:20;;;;;;;11.68;2.28;;;11.70;99.90;;;;;;5134412;27;20031;-80
2023/12/21 06:31:45;;;;;;;7.22;2.00;;;11.80;99.90;;;;;;5134821;27;20022;-80
2023/12/21 06:34:11;;;;;;;7.05;2.22;;;11.80;99.90;;;;;;5133677;27;20035;-80
2023/12/21 06:36:37;;;;;;;8.80;1.83;;;11.80;99.90;;;;;;5134064;27;20038;-80
2023/12/21 06:39:03;;;;;;;9.73;1.80;;;11.80;99.90;;;;;;5134494;27;20035;-80
2023/12/21 06:41:29;;;;;;;9.52;1.70;;;11.80;99.90;;;;;;5133640;27;20428;-80
2023/12/21 06:43:54;;;;;;;11.15;2.13;;;11.80;99.90;;;;;;5133896;27;20031;-81
2023/12/21 06:46:21;;;;;;;8.45;1.98;;;11.80;99.90;;;;;;5133279;27;20135;-80
2023/12/21 06:48:46;;;;;;;4.10;1.60;;;11.80;99.90;;;;;;5133711;27;20490;-82
2023/12/21 06:51:13;;;;;;;5.65;1.42;;;11.80;99.90;;;;;;5115263;27;20054;-81
2023/12/21 06:53:39;;;;;;;7.82;1.40;;;11.80;99.90;;;;;;5134198;27;20110;-80
2023/12/21 06:56:06;;;;;;;8.85;2.17;;;11.80;99.90;;;;;;5133039;27;20458;-80
2023/12/21 06:58:33;;;;;;;5.45;1.90;;;11.80;99.90;;;;;;5134112;27;20058;-80
2023/12/21 07:00:59;;;;;;;5.65;1.60;;;11.80;99.90;;;;;;5133298;27;20051;-81
2023/12/21 07:03:24;;;;;;;6.70;1.40;;;11.80;99.90;;;;;;5133552;27;20032;-82
2023/12/21 07:05:50;;;;;;;4.35;1.48;;;11.80;99.90;;;;;;5134098;27;20437;-83
2023/12/21 07:08:17;;;;;;;4.03;1.70;;;11.80;99.90;;;;;;5133290;27;20027;-81
2023/12/21 07:10:43;;;;;;;8.57;1.45;;;11.70;99.90;;;;;;5133878;27;20019;-81
2023/12/21 07:13:10;;;;;;;3.42;1.20;;;11.70;99.90;;;;;;5132812;27;20420;-81
2023/12/21 07:15:36;;;;;;;7.38;1.15;;;11.70;99.90;;;;;;5133094;27;20512;-80
2023/12/21 07:18:01;;;;;;;6.15;1.20;;;11.70;99.90;;;;;;5132906;27;20035;-81
2023/12/21 07:20:30;;;;;;;6.80;1.30;;;11.70;99.90;;;;;;5114428;27;20070;-80
2023/12/21 07:22:58;;;;;;;4.75;1.02;;;11.70;99.90;;;;;;5133745;27;20038;-80
2023/12/21 07:25:23;;;;;;;9.32;1.85;;;11.80;99.90;;;;;;5132577;27;20055;-80
2023/12/21 07:27:49;;;;;;;10.45;1.80;;;11.80;99.90;;;;;;5133103;27;20443;-80
2023/12/21 07:30:16;;;;;;;8.48;1.60;;;11.80;99.90;;;;;;5132611;27;20023;-80
2023/12/21 07:32:42;;;;;;;7.57;1.67;;;11.80;99.90;;;;;;5114578;27;20026;-80
2023/12/21 07:35:08;;;;;;;4.80;1.42;;;11.80;99.90;;;;;;5114081;27;20031;-81
2023/12/21 07:37:35;;;;;;;4.45;1.35;;;11.80;99.90;;;;;;5133129;27;20031;-84
2023/12/21 07:40:01;;;;;;;7.00;1.63;;;11.80;99.90;;;;;;5133345;27;20070;-79
2023/12/21 07:42:27;;;;;;;6.05;1.58;;;11.80;99.90;;;;;;5132732;27;20084;-82
2023/12/21 07:44:53;;;;;;;6.82;1.42;;;11.80;99.90;;;;;;5114537;27;20023;-81
2023/12/21 07:47:19;;;;;;;5.47;1.60;;;11.80;99.90;;;;;;5132339;27;20372;-80
2023/12/21 07:49:45;;;;;;;7.93;1.83;;;11.80;99.90;;;;;;5133542;27;20440;-81
2023/12/21 07:52:10;;;;;;;6.20;1.77;;;11.80;99.90;;;;;;5132218;27;20031;-81
2023/12/21 07:54:36;;;;;;;5.53;1.77;;;11.90;99.90;;;;;;5133001;27;20074;-80
2023/12/21 07:57:02;;;;;;;3.95;1.35;;;11.90;99.90;;;;;;5132303;27;20034;-80
2023/12/21 07:59:28;;;;;;;6.40;1.60;;;11.90;99.90;;;;;;5131878;27;20039;-80
2023/12/21 08:01:54;;;;;;;6.38;1.40;;;11.90;99.90;;;;;;5114288;27;20031;-80
2023/12/21 08:04:19;;;;;;;8.15;1.33;;;11.90;99.90;;;;;;5132180;27;20106;-80
2023/12/21 08:06:45;;;;;;;5.20;1.50;;;11.90;99.90;;;;;;5132940;27;20047;-80
2023/12/21 08:09:11;;;;;;;5.50;1.45;;;11.90;99.90;;;;;;5132472;27;20106;-80
2023/12/21 08:11:37;;;;;;;8.85;2.13;;;11.90;99.90;;;;;;5132237;27;20024;-80
2023/12/21 08:14:02;;;;;;;8.32;2.00;;;11.90;99.90;;;;;;5113666;27;20023;-81
2023/12/21 08:16:28;;;;;;;10.63;1.92;;;11.80;99.90;;;;;;5131446;27;20114;-80
2023/12/21 08:18:54;;;;;;;5.88;1.30;;;11.80;99.90;;;;;;5113860;27;20027;-80
2023/12/21 08:21:20;;;;;;;7.47;2.00;;;11.80;99.90;;;;;;5132117;27;20027;-81
2023/12/21 08:23:46;;;;;;;7.68;1.55;;;11.90;99.90;;;;;;5132399;27;20027;-80
2023/12/21 08:26:11;;;;;;;8.70;2.17;;;11.90;99.90;;;;;;5132191;27;20460;-80
2023/12/21 08:28:37;;;;;;;6.00;1.40;;;11.90;99.90;;;;;;5133044;27;20053;-81
2023/12/21 08:31:04;;;;;;;10.52;2.00;;;11.90;99.90;;;;;;5132419;27;20023;-80
2023/12/21 08:33:30;;;;;;;5.72;1.63;;;11.90;99.90;;;;;;5132695;27;20031;-80
2023/12/21 08:35:56;;;;;;;5.95;1.60;;;11.90;99.90;;;;;;5133449;27;20038;-81
2023/12/21 08:38:22;;;;;;;7.45;2.03;;;11.90;99.90;;;;;;5113651;27;20027;-79
2023/12/21 08:40:48;;;;;;;9.98;2.47;;;11.90;99.90;;;;;;5132303;27;20479;-79
2023/12/21 08:43:14;;;;;;;7.40;1.95;;;11.90;99.90;;;;;;5113245;28;20114;-80
2023/12/21 08:45:40;;;;;;;8.35;2.05;;;11.90;99.90;;;;;;5132456;27;20386;-78
2023/12/21 08:48:06;;;;;;;6.45;1.90;;;11.90;99.90;;;;;;5132131;28;20027;-79
2023/12/21 08:50:31;;;;;;;8.27;1.98;;;11.90;99.90;;;;;;5131775;28;20075;-78
2023/12/21 08:53:00;;;;;;;7.75;1.80;;;11.90;99.90;;;;;;5132844;28;20031;-79
2023/12/21 08:55:27;;;;;;;9.63;2.00;;;11.90;99.90;;;;;;5131979;28;20080;-78
2023/12/21 08:57:53;;;;;;;8.27;1.60;;;11.90;99.90;;;;;;5132114;28;20352;-79
2023/12/21 09:00:19;;;;;;;6.93;1.48;;;11.90;99.90;;;;;;5131430;28;20043;-81
2023/12/21 09:02:45;;;;;;;5.75;1.70;;;11.90;99.90;;;;;;5131497;28;20035;-80
2023/12/21 09:05:13;;;;;;;6.35;1.55;;;11.80;99.90;;;;;;5131370;28;20141;-81
2023/12/21 09:07:39;;;;;;;12.00;2.03;;;11.70;99.90;;;;;;5133043;27;20059;-78
2023/12/21 09:10:06;;;;;;;4.13;1.38;;;11.50;99.90;;;;;;5135411;27;20062;-79
2023/12/21 09:12:32;;;;;;;6.72;1.73;;;11.40;99.90;;;;;;5136414;27;20424;-82
2023/12/21 09:14:58;;;;;;;9.25;1.92;;;11.30;99.90;;;;;;5136295;27;20052;-79
2023/12/21 09:17:23;;;;;;;6.75;2.17;;;11.20;99.90;;;;;;5134898;27;20062;-77
2023/12/21 09:19:49;;;;;;;15.70;2.60;;;11.20;99.90;;;;;;5135766;27;20103;-78
2023/12/21 09:22:15;;;;;;;12.38;2.58;;;11.10;99.90;;;;;;5134810;27;20054;-78
2023/12/21 09:24:41;;;;;;;19.38;2.80;;;11.10;99.90;;;;;;5135455;27;20027;-78
2023/12/21 09:27:06;;;;;;;13.77;2.53;;;11.10;99.90;;;;;;5116163;27;20027;-78
2023/12/21 09:29:32;;;;;;;15.82;2.88;;;11.10;99.90;;;;;;5134406;27;20027;-80
2023/12/21 09:31:59;;;;;;;8.55;2.47;;;11.10;99.90;;;;;;5116065;27;20031;-80
2023/12/21 09:34:25;;;;;;;15.73;2.90;;;11.20;99.90;;;;;;5134657;27;20038;-80
2023/12/21 09:36:54;;;;;;;12.38;2.95;;;11.20;99.90;;;;;;5134450;27;20027;-79
2023/12/21 09:39:20;;;;;;;11.27;2.28;;;11.20;99.90;;;;;;5134020;27;20552;-80
2023/12/21 09:41:46;;;;;;;13.10;2.85;;;11.20;99.90;;;;;;5135054;27;20023;-81
2023/12/21 09:44:16;;;;;;;10.98;2.42;;;11.20;99.90;;;;;;5134178;27;20031;-81
2023/12/21 09:46:44;;;;;;;12.75;2.53;;;11.30;99.90;;;;;;5135007;27;20023;-80
2023/12/21 09:49:13;;;;;;;11.40;2.53;;;11.30;99.90;;;;;;5133845;27;20029;-81
2023/12/21 09:51:39;;;;;;;12.02;2.92;;;11.30;99.90;;;;;;5134531;27;20024;-80
2023/12/21 09:54:07;;;;;;;13.05;2.80;;;11.30;99.90;;;;;;5134516;27;20039;-80
2023/12/21 09:56:33;;;;;;;14.02;2.40;;;11.30;99.90;;;;;;5134064;27;20060;-81
2023/12/21 09:59:01;;;;;;;11.38;2.53;;;11.30;99.90;;;;;;5134361;27;20072;-81
2023/12/21 10:01:27;;;;;;;13.32;2.58;;;11.30;99.90;;;;;;5134460;27;20083;-83
2023/12/21 10:03:53;;;;;;;16.02;2.75;;;11.40;99.90;;;;;;5134943;27;20033;-82
2023/12/21 10:06:18;;;;;;;13.77;3.13;;;11.40;99.90;;;;;;5115560;27;20443;-80
2023/12/21 10:08:44;;;;;;;10.73;2.45;;;11.50;99.90;;;;;;5098574;27;20092;-82
2023/12/21 10:11:10;;;;;;;10.68;2.80;;;11.50;99.90;;;;;;5115919;27;20341;-81
2023/12/21 10:13:36;;;;;;;13.70;2.92;;;11.50;99.90;;;;;;5134157;27;20023;-81
2023/12/21 10:16:05;;;;;;;11.50;2.40;;;11.50;99.90;;;;;;5115720;27;20073;-80
2023/12/21 10:18:31;;;;;;;15.93;3.20;;;11.60;99.90;;;;;;5133456;27;20035;-78
2023/12/21 10:20:59;;;;;;;15.35;3.50;;;11.60;99.90;;;;;;5133703;27;20030;-79
2023/12/21 10:23:25;;;;;;;16.60;2.53;;;11.60;99.90;;;;;;5133987;27;20023;-80
2023/12/21 10:25:54;;;;;;;14.00;3.03;;;11.60;99.90;;;;;;5134693;27;20031;-80
2023/12/21 10:28:23;;;;;;;14.68;3.30;;;11.70;99.90;;;;;;5133769;27;20102;-79
2023/12/21 10:30:54;;;;;;;16.92;3.33;;;11.70;99.90;;;;;;5134835;27;20027;-79
2023/12/21 10:33:20;;;;;;;15.27;3.70;;;11.70;99.90;;;;;;5133762;27;20023;-80
2023/12/21 10:35:45;;;;;;;13.13;3.75;;;11.70;99.90;;;;;;5134565;27;20027;-81
2023/12/21 10:38:11;;;;;;;17.77;4.22;;;11.70;99.90;;;;;;5134012;27;20031;-80
2023/12/21 10:40:37;;;;;;;16.52;3.88;;;11.80;99.90;;;;;;5115193;27;20019;-80
2023/12/21 10:43:03;;;;;;;20.38;3.38;;;11.70;99.90;;;;;;5134289;27;20036;-80
2023/12/21 10:45:29;;;;;;;12.55;3.10;;;11.70;99.90;;;;;;5133237;27;20034;-81
2023/12/21 10:47:56;;;;;;;11.98;3.30;;;11.70;99.90;;;;;;5134379;27;20400;-80
2023/12/21 10:50:24;;;;;;;10.20;2.25;;;11.70;99.90;;;;;;5133626;27;20101;-79
2023/12/21 10:52:51;;;;;;;9.55;2.67;;;11.70;99.90;;;;;;5134229;27;20165;-81
2023/12/21 10:55:18;;;;;;;10.13;2.60;;;11.70;99.90;;;;;;5133249;27;20041;-81
2023/12/21 10:57:46;;;;;;;9.73;2.35;;;11.60;99.90;;;;;;5133874;27;20031;-79
2023/12/21 11:00:15;;;;;;;11.70;2.03;;;11.70;99.90;;;;;;5133170;27;20051;-80
2023/12/21 11:02:46;;;;;;;8.57;1.95;;;11.70;99.90;;;;;;5133543;27;20019;-78
2023/12/21 11:05:26;;;;;;;10.15;2.10;;;11.60;99.90;;;;;;5133894;27;20023;-79
2023/12/21 11:07:54;;;;;;;11.88;2.53;;;11.50;99.90;;;;;;5133502;27;20024;-80
2023/12/21 11:10:23;;;;;;;10.50;2.60;;;11.50;99.90;;;;;;5114410;27;20027;-81
2023/12/21 11:12:50;;;;;;;11.35;2.53;;;11.40;99.90;;;;;;5133709;27;20026;-81
2023/12/21 11:15:18;;;;;;;13.18;2.58;;;11.40;99.90;;;;;;5133175;27;20029;-82
2023/12/21 11:17:50;;;;;;;10.32;2.25;;;11.40;99.90;;;;;;5133469;27;20098;-80
2023/12/21 11:20:20;;;;;;;7.70;2.08;;;11.40;99.90;;;;;;5114656;27;20023;-82
2023/12/21 11:22:46;;;;;;;7.78;1.98;;;11.40;99.90;;;;;;5115319;27;20058;-80
2023/12/21 11:25:13;;;;;;;6.55;1.67;;;11.40;99.90;;;;;;5114616;27;20456;-79
2023/12/21 11:27:40;;;;;;;7.88;1.80;;;11.30;99.90;;;;;;5132658;27;20490;-79
2023/12/21 11:30:15;;;;;;;10.95;2.33;;;11.40;99.90;;;;;;5115212;27;20027;-80
2023/12/21 11:32:43;;;;;;;9.68;2.70;;;11.30;99.90;;;;;;5132387;27;20019;-82
2023/12/21 11:35:19;;;;;;;7.97;2.15;;;11.40;99.90;;;;;;5114648;27;20031;-82
2023/12/21 11:37:54;;;;;;;14.18;3.25;;;11.40;99.90;;;;;;5132668;27;20110;-81
2023/12/21 11:40:22;;;;;;;17.27;3.72;;;11.40;99.90;;;;;;5133047;27;20046;-80
2023/12/21 11:42:49;;;;;;;24.48;4.43;;;11.40;99.90;;;;;;5114356;27;20118;-78
2023/12/21 11:45:46;;;;;;;15.30;3.67;;;11.40;99.90;;;;;;5132492;27;20127;-79
2023/12/21 11:48:16;;;;;;;25.58;4.93;;;11.40;99.90;;;;;;5069320;28;20219;-79
2023/12/21 11:50:43;;;;;;;27.58;4.30;;;11.50;99.90;;;;;;5070178;28;20062;-79
2023/12/21 11:53:25;;;;;;;20.10;3.88;;;11.50;99.90;;;;;;5150871;27;20442;-82
2023/12/21 11:55:51;;;;;;;18.48;3.85;;;11.50;99.90;;;;;;5131988;28;20088;-80
2023/12/21 11:58:19;;;;;;;19.73;4.25;;;11.50;99.90;;;;;;5132331;28;20019;-81
2023/12/21 12:00:49;;;;;;;17.35;3.60;;;11.50;99.90;;;;;;5130623;28;20371;-80
2023/12/21 12:03:18;;;;;;;23.48;4.63;;;11.50;99.90;;;;;;5133587;27;20031;-79
2023/12/21 12:05:45;;;;;;;25.63;5.32;;;11.60;99.90;;;;;;5129901;27;20115;-80
2023/12/21 12:08:11;;;;;;;22.88;4.25;;;11.60;99.90;;;;;;5128960;27;20080;-78
2023/12/21 12:10:37;;;;;;;26.65;5.10;;;11.60;99.90;;;;;;5127376;28;20080;-80
2023/12/21 12:13:04;;;;;;;20.63;4.35;;;11.50;99.90;;;;;;5127911;28;20118;-80
2023/12/21 12:15:32;;;;;;;28.30;5.40;;;11.50;99.90;;;;;;5128622;27;20022;-80
2023/12/21 12:17:58;;;;;;;19.65;4.78;;;11.60;99.90;;;;;;5129064;27;20028;-80
2023/12/21 12:20:23;;;;;;;21.27;4.53;;;11.60;99.90;;;;;;5128165;28;20124;-80
2023/12/21 12:22:53;;;;;;;24.98;5.03;;;11.70;99.90;;;;;;5110679;28;20023;-82
2023/12/21 12:25:19;;;;;;;25.40;4.78;;;11.70;99.90;;;;;;5129038;27;20058;-81
2023/12/21 12:27:46;;;;;;;29.83;5.45;;;11.80;99.90;;;;;;5128583;27;20096;-79
2023/12/21 12:30:13;;;;;;;19.77;4.32;;;11.80;99.90;;;;;;5128732;27;20077;-80
2023/12/21 12:32:40;;;;;;;23.02;4.78;;;11.90;99.90;;;;;;5127911;27;20063;-79
2023/12/21 12:35:09;;;;;;;20.65;4.35;;;11.90;99.90;;;;;;5128490;27;20026;-80
2023/12/21 12:37:35;;;;;;;26.60;5.78;;;11.90;99.90;;;;;;5127567;27;20483;-81